sensor_id;sensor_type;location;lat;lon;timestamp;temperature;humidity
37844;DHT22;63793;57.632;18.292;2023-11-19T00:01:34;-2.10;99.90
37844;DHT22;63793;57.632;18.292;2023-11-19T00:04:01;-2.10;99.90
37844;DHT22;63793;57.632;18.292;2023-11-19T00:06:31;-2.10;99.90
37844;DHT22;63793;57.632;18.292;2023-11-19T00:08:58;-2.20;99.90
37844;DHT22;63793;57.632;18.292;2023-11-19T00:11:26;-2.20;99.90
37844;DHT22;63793;57.632;18.292;2023-11-19T00:13:55;-2.20;99.90
37844;DHT22;63793;57.632;18.292;2023-11-19T00:16:22;-2.20;99.90
37844;DHT22;63793;57.632;18.292;2023-11-19T00:18:49;-2.20;99.90
37844;DHT22;63793;57.632;18.292;2023-11-19T00:21:16;-2.20;99.90
37844;DHT22;63793;57.632;18.292;2023-11-19T00:23:43;-2.20;99.90
37844;DHT22;63793;57.632;18.292;2023-11-19T00:26:10;-2.20;99.90
37844;DHT22;63793;57.632;18.292;2023-11-19T00:28:39;-2.30;99.90
37844;DHT22;63793;57.632;18.292;2023-11-19T00:31:06;-2.30;99.90
37844;DHT22;63793;57.632;18.292;2023-11-19T00:33:33;-2.30;99.90
37844;DHT22;63793;57.632;18.292;2023-11-19T00:36:00;-2.30;99.90
37844;DHT22;63793;57.632;18.292;2023-11-19T00:38:27;-2.30;99.90
37844;DHT22;63793;57.632;18.292;2023-11-19T00:40:54;-2.30;99.90
37844;DHT22;63793;57.632;18.292;2023-11-19T00:43:21;-2.30;99.90
37844;DHT22;63793;57.632;18.292;2023-11-19T00:45:49;-2.30;99.90
37844;DHT22;63793;57.632;18.292;2023-11-19T00:48:17;-2.40;99.90
37844;DHT22;63793;57.632;18.292;2023-11-19T00:50:44;-2.40;99.90
37844;DHT22;63793;57.632;18.292;2023-11-19T00:53:12;-2.40;99.90
37844;DHT22;63793;57.632;18.292;2023-11-19T00:55:39;-2.40;99.90
37844;DHT22;63793;57.632;18.292;2023-11-19T00:58:09;-2.30;99.90
37844;DHT22;63793;57.632;18.292;2023-11-19T01:00:36;-2.40;99.90
37844;DHT22;63793;57.632;18.292;2023-11-19T01:03:03;-2.40;99.90
37844;DHT22;63793;57.632;18.292;2023-11-19T01:05:30;-2.40;99.90
37844;DHT22;63793;57.632;18.292;2023-11-19T01:07:57;-2.40;99.90
37844;DHT22;63793;57.632;18.292;2023-11-19T01:10:24;-2.50;99.90
37844;DHT22;63793;57.632;18.292;2023-11-19T01:12:52;-2.50;99.90
37844;DHT22;63793;57.632;18.292;2023-11-19T01:15:20;-2.50;99.90
37844;DHT22;63793;57.632;18.292;2023-11-19T01:17:47;-2.50;99.90
37844;DHT22;63793;57.632;18.292;2023-11-19T01:20:17;-2.40;99.90
37844;DHT22;63793;57.632;18.292;2023-11-19T01:22:44;-2.40;99.90
37844;DHT22;63793;57.632;18.292;2023-11-19T01:25:11;-2.40;99.90
37844;DHT22;63793;57.632;18.292;2023-11-19T01:27:38;-2.40;99.90
37844;DHT22;63793;57.632;18.292;2023-11-19T01:30:06;-2.30;99.90
37844;DHT22;63793;57.632;18.292;2023-11-19T01:32:36;-2.30;99.90
37844;DHT22;63793;57.632;18.292;2023-11-19T01:35:04;-2.30;99.90
37844;DHT22;63793;57.632;18.292;2023-11-19T01:37:31;-2.30;99.90
37844;DHT22;63793;57.632;18.292;2023-11-19T01:39:59;-2.30;99.90
37844;DHT22;63793;57.632;18.292;2023-11-19T01:42:26;-2.30;99.90
37844;DHT22;63793;57.632;18.292;2023-11-19T01:45:01;-2.20;99.90
37844;DHT22;63793;57.632;18.292;2023-11-19T01:47:28;-2.20;99.90
37844;DHT22;63793;57.632;18.292;2023-11-19T01:49:57;-2.20;99.90
37844;DHT22;63793;57.632;18.292;2023-11-19T01:52:25;-2.10;99.90
37844;DHT22;63793;57.632;18.292;2023-11-19T01:54:53;-2.10;99.90
37844;DHT22;63793;57.632;18.292;2023-11-19T01:57:22;-2.10;99.90
37844;DHT22;63793;57.632;18.292;2023-11-19T01:59:51;-2.10;99.90
37844;DHT22;63793;57.632;18.292;2023-11-19T02:02:19;-2.10;99.90
37844;DHT22;63793;57.632;18.292;2023-11-19T02:04:50;-2.10;99.90
37844;DHT22;63793;57.632;18.292;2023-11-19T02:07:18;-2.10;99.90
37844;DHT22;63793;57.632;18.292;2023-11-19T02:09:45;-2.10;99.90
37844;DHT22;63793;57.632;18.292;2023-11-19T02:12:12;-2.10;99.90
37844;DHT22;63793;57.632;18.292;2023-11-19T02:14:39;-2.10;99.90
37844;DHT22;63793;57.632;18.292;2023-11-19T02:17:07;-2.00;99.90
37844;DHT22;63793;57.632;18.292;2023-11-19T02:19:51;-2.00;99.90
37844;DHT22;63793;57.632;18.292;2023-11-19T02:22:18;-2.00;99.90
37844;DHT22;63793;57.632;18.292;2023-11-19T02:24:47;-2.00;99.90
37844;DHT22;63793;57.632;18.292;2023-11-19T02:27:25;-2.00;99.90
37844;DHT22;63793;57.632;18.292;2023-11-19T02:29:55;-1.90;99.90
37844;DHT22;63793;57.632;18.292;2023-11-19T02:32:23;-1.90;99.90
37844;DHT22;63793;57.632;18.292;2023-11-19T02:34:54;-1.80;99.90
37844;DHT22;63793;57.632;18.292;2023-11-19T02:37:32;-1.80;99.90
37844;DHT22;63793;57.632;18.292;2023-11-19T02:39:59;-1.80;99.90
37844;DHT22;63793;57.632;18.292;2023-11-19T02:42:36;-1.70;99.90
37844;DHT22;63793;57.632;18.292;2023-11-19T02:45:04;-1.70;99.90
37844;DHT22;63793;57.632;18.292;2023-11-19T02:47:34;-1.70;99.90
37844;DHT22;63793;57.632;18.292;2023-11-19T02:50:01;-1.70;99.90
37844;DHT22;63793;57.632;18.292;2023-11-19T02:52:28;-1.60;99.90
37844;DHT22;63793;57.632;18.292;2023-11-19T02:54:55;-1.60;99.90
37844;DHT22;63793;57.632;18.292;2023-11-19T02:57:22;-1.50;99.90
37844;DHT22;63793;57.632;18.292;2023-11-19T02:59:49;-1.40;99.90
37844;DHT22;63793;57.632;18.292;2023-11-19T03:02:16;-1.30;99.90
37844;DHT22;63793;57.632;18.292;2023-11-19T03:04:44;-1.20;99.90
37844;DHT22;63793;57.632;18.292;2023-11-19T03:07:12;-1.20;99.90
37844;DHT22;63793;57.632;18.292;2023-11-19T03:09:40;-1.10;99.90
37844;DHT22;63793;57.632;18.292;2023-11-19T03:12:07;-1.10;99.90
37844;DHT22;63793;57.632;18.292;2023-11-19T03:14:34;-1.00;99.90
37844;DHT22;63793;57.632;18.292;2023-11-19T03:17:02;-1.00;99.90
37844;DHT22;63793;57.632;18.292;2023-11-19T03:19:30;-1.00;99.90
37844;DHT22;63793;57.632;18.292;2023-11-19T03:21:57;-0.90;99.90
37844;DHT22;63793;57.632;18.292;2023-11-19T03:24:24;-0.90;99.90
37844;DHT22;63793;57.632;18.292;2023-11-19T03:26:51;-0.90;99.90
37844;DHT22;63793;57.632;18.292;2023-11-19T03:29:18;-0.80;99.90
37844;DHT22;63793;57.632;18.292;2023-11-19T03:31:45;-0.80;99.90
37844;DHT22;63793;57.632;18.292;2023-11-19T03:34:12;-0.80;99.90
37844;DHT22;63793;57.632;18.292;2023-11-19T03:36:40;-0.80;99.90
37844;DHT22;63793;57.632;18.292;2023-11-19T03:39:07;-0.80;99.90
37844;DHT22;63793;57.632;18.292;2023-11-19T03:41:33;-0.70;99.90
37844;DHT22;63793;57.632;18.292;2023-11-19T03:44:03;-0.70;99.90
37844;DHT22;63793;57.632;18.292;2023-11-19T03:46:30;-0.70;99.90
37844;DHT22;63793;57.632;18.292;2023-11-19T03:48:57;-0.70;99.90
37844;DHT22;63793;57.632;18.292;2023-11-19T03:51:25;-0.70;99.90
37844;DHT22;63793;57.632;18.292;2023-11-19T03:53:51;-0.70;99.90
37844;DHT22;63793;57.632;18.292;2023-11-19T03:56:18;-0.70;99.90
37844;DHT22;63793;57.632;18.292;2023-11-19T03:58:47;-0.70;99.90
37844;DHT22;63793;57.632;18.292;2023-11-19T04:01:14;-0.70;99.90
37844;DHT22;63793;57.632;18.292;2023-11-19T04:03:41;-0.70;99.90
37844;DHT22;63793;57.632;18.292;2023-11-19T04:06:11;-0.70;99.90
37844;DHT22;63793;57.632;18.292;2023-11-19T04:08:38;-0.60;99.90
37844;DHT22;63793;57.632;18.292;2023-11-19T04:11:05;-0.70;99.90
37844;DHT22;63793;57.632;18.292;2023-11-19T04:13:32;-0.60;99.90
37844;DHT22;63793;57.632;18.292;2023-11-19T04:16:00;-0.60;99.90
37844;DHT22;63793;57.632;18.292;2023-11-19T04:18:28;-0.60;99.90
37844;DHT22;63793;57.632;18.292;2023-11-19T04:20:55;-0.60;99.90
37844;DHT22;63793;57.632;18.292;2023-11-19T04:23:21;-0.60;99.90
37844;DHT22;63793;57.632;18.292;2023-11-19T04:25:48;-0.60;99.90
37844;DHT22;63793;57.632;18.292;2023-11-19T04:28:15;-0.60;99.90
37844;DHT22;63793;57.632;18.292;2023-11-19T04:30:42;-0.60;99.90
37844;DHT22;63793;57.632;18.292;2023-11-19T04:33:11;-0.60;99.90
37844;DHT22;63793;57.632;18.292;2023-11-19T04:35:38;-0.60;99.90
37844;DHT22;63793;57.632;18.292;2023-11-19T04:38:05;-0.60;99.90
37844;DHT22;63793;57.632;18.292;2023-11-19T04:40:32;-0.60;99.90
37844;DHT22;63793;57.632;18.292;2023-11-19T04:43:00;-0.60;99.90
37844;DHT22;63793;57.632;18.292;2023-11-19T04:45:27;-0.60;99.90
37844;DHT22;63793;57.632;18.292;2023-11-19T04:47:54;-0.60;99.90
37844;DHT22;63793;57.632;18.292;2023-11-19T04:50:21;-0.60;99.90
37844;DHT22;63793;57.632;18.292;2023-11-19T04:52:48;-0.60;99.90
37844;DHT22;63793;57.632;18.292;2023-11-19T04:55:15;-0.60;99.90
37844;DHT22;63793;57.632;18.292;2023-11-19T04:57:42;-0.60;99.90
37844;DHT22;63793;57.632;18.292;2023-11-19T05:00:10;-0.60;99.90
37844;DHT22;63793;57.632;18.292;2023-11-19T05:02:40;-0.60;99.90
37844;DHT22;63793;57.632;18.292;2023-11-19T05:05:08;-0.60;99.90
37844;DHT22;63793;57.632;18.292;2023-11-19T05:07:36;-0.60;99.90
37844;DHT22;63793;57.632;18.292;2023-11-19T05:10:03;-0.60;99.90
37844;DHT22;63793;57.632;18.292;2023-11-19T05:12:32;-0.60;99.90
37844;DHT22;63793;57.632;18.292;2023-11-19T05:14:59;-0.50;99.90
37844;DHT22;63793;57.632;18.292;2023-11-19T05:17:26;-0.60;99.90
37844;DHT22;63793;57.632;18.292;2023-11-19T05:19:53;-0.60;99.90
37844;DHT22;63793;57.632;18.292;2023-11-19T05:22:20;-0.50;99.90
37844;DHT22;63793;57.632;18.292;2023-11-19T05:24:47;-0.50;99.90
37844;DHT22;63793;57.632;18.292;2023-11-19T05:27:16;-0.50;99.90
37844;DHT22;63793;57.632;18.292;2023-11-19T05:29:43;-0.50;99.90
37844;DHT22;63793;57.632;18.292;2023-11-19T05:32:10;-0.50;99.90
37844;DHT22;63793;57.632;18.292;2023-11-19T05:34:38;-0.50;99.90
37844;DHT22;63793;57.632;18.292;2023-11-19T05:37:18;-0.50;99.90
37844;DHT22;63793;57.632;18.292;2023-11-19T05:39:45;-0.40;99.90
37844;DHT22;63793;57.632;18.292;2023-11-19T05:42:12;-0.40;99.90
37844;DHT22;63793;57.632;18.292;2023-11-19T05:44:39;-0.40;99.90
37844;DHT22;63793;57.632;18.292;2023-11-19T05:47:07;-0.30;99.90
37844;DHT22;63793;57.632;18.292;2023-11-19T05:49:34;-0.20;99.90
37844;DHT22;63793;57.632;18.292;2023-11-19T05:52:02;-0.10;99.90
37844;DHT22;63793;57.632;18.292;2023-11-19T05:54:30;-0.10;99.90
37844;DHT22;63793;57.632;18.292;2023-11-19T05:56:58;-0.10;99.90
37844;DHT22;63793;57.632;18.292;2023-11-19T05:59:25;-0.10;99.90
37844;DHT22;63793;57.632;18.292;2023-11-19T06:01:52;0.00;99.90
37844;DHT22;63793;57.632;18.292;2023-11-19T06:04:19;0.00;99.90
37844;DHT22;63793;57.632;18.292;2023-11-19T06:06:46;0.10;99.90
37844;DHT22;63793;57.632;18.292;2023-11-19T06:09:13;0.10;99.90
37844;DHT22;63793;57.632;18.292;2023-11-19T06:11:40;0.20;99.90
37844;DHT22;63793;57.632;18.292;2023-11-19T06:14:07;0.20;99.90
37844;DHT22;63793;57.632;18.292;2023-11-19T06:16:34;0.20;99.90
37844;DHT22;63793;57.632;18.292;2023-11-19T06:19:01;0.30;99.90
37844;DHT22;63793;57.632;18.292;2023-11-19T06:21:28;0.30;99.90
37844;DHT22;63793;57.632;18.292;2023-11-19T06:23:55;0.40;99.90
37844;DHT22;63793;57.632;18.292;2023-11-19T06:26:22;0.40;99.90
37844;DHT22;63793;57.632;18.292;2023-11-19T06:28:50;0.40;99.90
37844;DHT22;63793;57.632;18.292;2023-11-19T06:31:17;0.50;99.90
37844;DHT22;63793;57.632;18.292;2023-11-19T06:33:44;0.50;99.90
37844;DHT22;63793;57.632;18.292;2023-11-19T06:36:13;0.60;99.90
37844;DHT22;63793;57.632;18.292;2023-11-19T06:38:43;0.60;99.90
37844;DHT22;63793;57.632;18.292;2023-11-19T06:41:10;0.60;99.90
37844;DHT22;63793;57.632;18.292;2023-11-19T06:43:37;0.60;99.90
37844;DHT22;63793;57.632;18.292;2023-11-19T06:46:17;0.60;99.90
37844;DHT22;63793;57.632;18.292;2023-11-19T06:48:45;0.70;99.90
37844;DHT22;63793;57.632;18.292;2023-11-19T06:51:12;0.70;99.90
37844;DHT22;63793;57.632;18.292;2023-11-19T06:53:40;0.70;99.90
37844;DHT22;63793;57.632;18.292;2023-11-19T06:56:20;0.80;99.90
37844;DHT22;63793;57.632;18.292;2023-11-19T06:58:48;0.80;99.90
37844;DHT22;63793;57.632;18.292;2023-11-19T07:01:16;0.80;99.90
37844;DHT22;63793;57.632;18.292;2023-11-19T07:03:48;0.80;99.90
37844;DHT22;63793;57.632;18.292;2023-11-19T07:06:15;0.90;99.90
37844;DHT22;63793;57.632;18.292;2023-11-19T07:08:42;0.80;99.90
37844;DHT22;63793;57.632;18.292;2023-11-19T07:11:13;0.80;99.90
37844;DHT22;63793;57.632;18.292;2023-11-19T07:13:42;0.80;99.90
37844;DHT22;63793;57.632;18.292;2023-11-19T07:16:10;0.80;99.90
37844;DHT22;63793;57.632;18.292;2023-11-19T07:18:37;0.80;99.90
37844;DHT22;63793;57.632;18.292;2023-11-19T07:21:04;0.90;99.90
37844;DHT22;63793;57.632;18.292;2023-11-19T07:23:31;0.90;99.90
37844;DHT22;63793;57.632;18.292;2023-11-19T07:26:01;0.90;99.90
37844;DHT22;63793;57.632;18.292;2023-11-19T07:28:28;1.00;99.90
37844;DHT22;63793;57.632;18.292;2023-11-19T07:30:55;1.00;99.90
37844;DHT22;63793;57.632;18.292;2023-11-19T07:33:25;1.10;99.90
37844;DHT22;63793;57.632;18.292;2023-11-19T07:35:52;1.10;99.90
37844;DHT22;63793;57.632;18.292;2023-11-19T07:38:19;1.10;99.90
37844;DHT22;63793;57.632;18.292;2023-11-19T07:40:46;1.10;99.90
37844;DHT22;63793;57.632;18.292;2023-11-19T07:43:20;1.20;99.90
37844;DHT22;63793;57.632;18.292;2023-11-19T07:45:47;1.20;99.90
37844;DHT22;63793;57.632;18.292;2023-11-19T07:48:13;1.20;99.90
37844;DHT22;63793;57.632;18.292;2023-11-19T07:50:42;1.30;99.90
37844;DHT22;63793;57.632;18.292;2023-11-19T07:53:09;1.30;99.90
37844;DHT22;63793;57.632;18.292;2023-11-19T07:55:36;1.40;99.90
37844;DHT22;63793;57.632;18.292;2023-11-19T07:58:08;1.40;99.90
37844;DHT22;63793;57.632;18.292;2023-11-19T08:00:35;1.40;99.90
37844;DHT22;63793;57.632;18.292;2023-11-19T08:03:02;1.50;99.90
37844;DHT22;63793;57.632;18.292;2023-11-19T08:05:30;1.50;99.90
37844;DHT22;63793;57.632;18.292;2023-11-19T08:07:57;1.60;99.90
37844;DHT22;63793;57.632;18.292;2023-11-19T08:10:25;1.60;99.90
37844;DHT22;63793;57.632;18.292;2023-11-19T08:12:52;1.70;99.90
37844;DHT22;63793;57.632;18.292;2023-11-19T08:15:19;1.70;99.90
37844;DHT22;63793;57.632;18.292;2023-11-19T08:17:58;1.80;99.90
37844;DHT22;63793;57.632;18.292;2023-11-19T08:20:25;1.80;99.90
37844;DHT22;63793;57.632;18.292;2023-11-19T08:22:52;1.90;99.90
37844;DHT22;63793;57.632;18.292;2023-11-19T08:25:19;1.90;99.90
37844;DHT22;63793;57.632;18.292;2023-11-19T08:27:46;1.90;99.90
37844;DHT22;63793;57.632;18.292;2023-11-19T08:30:13;2.00;99.90
37844;DHT22;63793;57.632;18.292;2023-11-19T08:32:40;2.00;99.90
37844;DHT22;63793;57.632;18.292;2023-11-19T08:35:08;2.00;99.90
37844;DHT22;63793;57.632;18.292;2023-11-19T08:37:35;2.00;99.90
37844;DHT22;63793;57.632;18.292;2023-11-19T08:40:03;2.00;99.90
37844;DHT22;63793;57.632;18.292;2023-11-19T08:42:31;2.00;99.90
37844;DHT22;63793;57.632;18.292;2023-11-19T08:44:58;2.00;99.90
37844;DHT22;63793;57.632;18.292;2023-11-19T08:47:25;2.00;99.90
37844;DHT22;63793;57.632;18.292;2023-11-19T08:49:52;2.00;99.90
37844;DHT22;63793;57.632;18.292;2023-11-19T08:52:22;2.00;99.90
37844;DHT22;63793;57.632;18.292;2023-11-19T08:54:49;2.00;99.90
37844;DHT22;63793;57.632;18.292;2023-11-19T08:57:16;2.00;99.90
37844;DHT22;63793;57.632;18.292;2023-11-19T08:59:44;2.00;99.90
37844;DHT22;63793;57.632;18.292;2023-11-19T09:02:13;2.00;99.90
37844;DHT22;63793;57.632;18.292;2023-11-19T09:04:40;2.00;99.90
37844;DHT22;63793;57.632;18.292;2023-11-19T09:07:08;2.00;99.90
37844;DHT22;63793;57.632;18.292;2023-11-19T09:09:36;2.00;99.90
37844;DHT22;63793;57.632;18.292;2023-11-19T09:12:03;2.00;99.90
37844;DHT22;63793;57.632;18.292;2023-11-19T09:14:31;2.00;99.90
37844;DHT22;63793;57.632;18.292;2023-11-19T09:16:58;2.00;99.90
37844;DHT22;63793;57.632;18.292;2023-11-19T09:19:25;2.00;99.90
37844;DHT22;63793;57.632;18.292;2023-11-19T09:21:53;2.00;99.90
37844;DHT22;63793;57.632;18.292;2023-11-19T09:24:20;2.00;99.90
37844;DHT22;63793;57.632;18.292;2023-11-19T09:26:47;2.10;99.90
37844;DHT22;63793;57.632;18.292;2023-11-19T09:29:14;2.10;99.90
37844;DHT22;63793;57.632;18.292;2023-11-19T09:31:42;2.10;99.90
37844;DHT22;63793;57.632;18.292;2023-11-19T09:34:09;2.10;99.90
37844;DHT22;63793;57.632;18.292;2023-11-19T09:36:36;2.10;99.90
37844;DHT22;63793;57.632;18.292;2023-11-19T09:39:03;2.10;99.90
37844;DHT22;63793;57.632;18.292;2023-11-19T09:41:32;2.20;99.90
37844;DHT22;63793;57.632;18.292;2023-11-19T09:43:59;2.20;99.90
37844;DHT22;63793;57.632;18.292;2023-11-19T09:46:26;2.30;99.90
37844;DHT22;63793;57.632;18.292;2023-11-19T09:48:56;2.30;99.90
37844;DHT22;63793;57.632;18.292;2023-11-19T09:51:24;2.30;99.90
37844;DHT22;63793;57.632;18.292;2023-11-19T09:53:51;2.40;99.90
37844;DHT22;63793;57.632;18.292;2023-11-19T09:56:19;2.40;99.90
37844;DHT22;63793;57.632;18.292;2023-11-19T09:58:46;2.50;99.90
37844;DHT22;63793;57.632;18.292;2023-11-19T10:01:14;2.50;99.90
37844;DHT22;63793;57.632;18.292;2023-11-19T10:03:44;2.60;99.90
37844;DHT22;63793;57.632;18.292;2023-11-19T10:06:14;2.60;99.90
37844;DHT22;63793;57.632;18.292;2023-11-19T10:08:42;2.70;99.90
37844;DHT22;63793;57.632;18.292;2023-11-19T10:11:10;2.80;99.90
37844;DHT22;63793;57.632;18.292;2023-11-19T10:13:40;2.80;99.90
37844;DHT22;63793;57.632;18.292;2023-11-19T10:16:12;2.90;99.90
37844;DHT22;63793;57.632;18.292;2023-11-19T10:18:49;2.90;99.90
37844;DHT22;63793;57.632;18.292;2023-11-19T10:21:19;3.00;99.90
37844;DHT22;63793;57.632;18.292;2023-11-19T10:23:54;3.10;99.90
37844;DHT22;63793;57.632;18.292;2023-11-19T10:26:23;3.10;99.90
37844;DHT22;63793;57.632;18.292;2023-11-19T10:28:50;3.20;99.90
37844;DHT22;63793;57.632;18.292;2023-11-19T10:31:18;3.30;99.90
37844;DHT22;63793;57.632;18.292;2023-11-19T10:33:46;3.30;99.90
37844;DHT22;63793;57.632;18.292;2023-11-19T10:36:14;3.40;99.90
37844;DHT22;63793;57.632;18.292;2023-11-19T10:38:55;3.50;99.90
37844;DHT22;63793;57.632;18.292;2023-11-19T10:41:31;3.50;99.90
37844;DHT22;63793;57.632;18.292;2023-11-19T10:43:59;3.60;99.90
37844;DHT22;63793;57.632;18.292;2023-11-19T10:46:42;3.60;99.90
37844;DHT22;63793;57.632;18.292;2023-11-19T10:49:10;3.70;99.90
37844;DHT22;63793;57.632;18.292;2023-11-19T10:51:45;3.70;99.90
37844;DHT22;63793;57.632;18.292;2023-11-19T10:54:15;3.70;99.90
37844;DHT22;63793;57.632;18.292;2023-11-19T10:56:44;3.70;99.90
37844;DHT22;63793;57.632;18.292;2023-11-19T10:59:15;3.70;99.90
37844;DHT22;63793;57.632;18.292;2023-11-19T11:01:48;3.80;99.90
37844;DHT22;63793;57.632;18.292;2023-11-19T11:04:23;3.80;99.90
37844;DHT22;63793;57.632;18.292;2023-11-19T11:06:51;3.70;99.90
37844;DHT22;63793;57.632;18.292;2023-11-19T11:09:18;3.80;99.90
37844;DHT22;63793;57.632;18.292;2023-11-19T11:11:50;3.80;99.90
37844;DHT22;63793;57.632;18.292;2023-11-19T11:14:21;3.80;99.90
37844;DHT22;63793;57.632;18.292;2023-11-19T11:16:49;3.90;99.90
37844;DHT22;63793;57.632;18.292;2023-11-19T11:19:16;3.90;99.90
37844;DHT22;63793;57.632;18.292;2023-11-19T11:21:50;3.90;99.90
37844;DHT22;63793;57.632;18.292;2023-11-19T11:27:17;3.90;99.90
37844;DHT22;63793;57.632;18.292;2023-11-19T11:32:45;4.00;99.90
37844;DHT22;63793;57.632;18.292;2023-11-19T11:35:24;4.00;99.90
37844;DHT22;63793;57.632;18.292;2023-11-19T11:38:06;4.10;99.90
37844;DHT22;63793;57.632;18.292;2023-11-19T11:40:34;4.00;99.90
37844;DHT22;63793;57.632;18.292;2023-11-19T11:43:03;4.10;99.90
37844;DHT22;63793;57.632;18.292;2023-11-19T11:45:39;4.10;99.90
37844;DHT22;63793;57.632;18.292;2023-11-19T11:48:16;4.10;99.90
37844;DHT22;63793;57.632;18.292;2023-11-19T11:50:54;4.10;99.90
37844;DHT22;63793;57.632;18.292;2023-11-19T11:53:23;4.00;99.90
37844;DHT22;63793;57.632;18.292;2023-11-19T11:58:36;4.10;99.90
37844;DHT22;63793;57.632;18.292;2023-11-19T12:01:05;4.10;99.90
37844;DHT22;63793;57.632;18.292;2023-11-19T12:03:36;4.10;99.90
37844;DHT22;63793;57.632;18.292;2023-11-19T12:06:04;4.10;99.90
37844;DHT22;63793;57.632;18.292;2023-11-19T12:08:34;4.10;99.90
37844;DHT22;63793;57.632;18.292;2023-11-19T12:11:19;4.10;99.90
37844;DHT22;63793;57.632;18.292;2023-11-19T12:13:54;4.10;99.90
37844;DHT22;63793;57.632;18.292;2023-11-19T12:16:29;4.10;99.90
37844;DHT22;63793;57.632;18.292;2023-11-19T12:19:03;4.10;99.90
37844;DHT22;63793;57.632;18.292;2023-11-19T12:21:32;4.10;99.90
37844;DHT22;63793;57.632;18.292;2023-11-19T12:24:02;4.10;99.90
37844;DHT22;63793;57.632;18.292;2023-11-19T12:26:38;4.10;99.90
37844;DHT22;63793;57.632;18.292;2023-11-19T12:29:05;4.10;99.90
37844;DHT22;63793;57.632;18.292;2023-11-19T12:31:35;4.10;99.90
37844;DHT22;63793;57.632;18.292;2023-11-19T12:34:05;4.10;99.90
37844;DHT22;63793;57.632;18.292;2023-11-19T12:36:34;4.10;99.90
37844;DHT22;63793;57.632;18.292;2023-11-19T12:39:01;4.10;99.90
37844;DHT22;63793;57.632;18.292;2023-11-19T12:41:28;4.10;99.90
37844;DHT22;63793;57.632;18.292;2023-11-19T12:44:09;4.10;99.90
37844;DHT22;63793;57.632;18.292;2023-11-19T12:46:36;4.10;99.90
37844;DHT22;63793;57.632;18.292;2023-11-19T12:49:03;4.10;99.90
37844;DHT22;63793;57.632;18.292;2023-11-19T12:51:32;4.00;99.90
37844;DHT22;63793;57.632;18.292;2023-11-19T12:54:00;4.10;99.90
37844;DHT22;63793;57.632;18.292;2023-11-19T12:56:27;4.10;99.90
37844;DHT22;63793;57.632;18.292;2023-11-19T12:58:54;4.00;99.90
37844;DHT22;63793;57.632;18.292;2023-11-19T13:01:21;4.00;99.90
37844;DHT22;63793;57.632;18.292;2023-11-19T13:03:48;4.00;99.90
37844;DHT22;63793;57.632;18.292;2023-11-19T13:06:17;3.90;99.90
37844;DHT22;63793;57.632;18.292;2023-11-19T13:08:48;3.90;99.90
37844;DHT22;63793;57.632;18.292;2023-11-19T13:11:31;3.80;99.90
37844;DHT22;63793;57.632;18.292;2023-11-19T13:14:05;3.80;99.90
37844;DHT22;63793;57.632;18.292;2023-11-19T13:16:36;3.70;99.90
37844;DHT22;63793;57.632;18.292;2023-11-19T13:19:03;3.70;99.90
37844;DHT22;63793;57.632;18.292;2023-11-19T13:21:32;3.70;99.90
37844;DHT22;63793;57.632;18.292;2023-11-19T13:23:59;3.70;99.90
37844;DHT22;63793;57.632;18.292;2023-11-19T13:26:26;3.70;99.90
37844;DHT22;63793;57.632;18.292;2023-11-19T13:28:52;3.60;99.90
37844;DHT22;63793;57.632;18.292;2023-11-19T13:31:19;3.60;99.90
37844;DHT22;63793;57.632;18.292;2023-11-19T13:33:47;3.60;99.90
37844;DHT22;63793;57.632;18.292;2023-11-19T13:36:14;3.50;99.90
37844;DHT22;63793;57.632;18.292;2023-11-19T13:38:43;3.50;99.90
37844;DHT22;63793;57.632;18.292;2023-11-19T13:41:14;3.50;99.90
37844;DHT22;63793;57.632;18.292;2023-11-19T13:43:41;3.40;99.90
37844;DHT22;63793;57.632;18.292;2023-11-19T13:46:08;3.40;99.90
37844;DHT22;63793;57.632;18.292;2023-11-19T13:48:38;3.40;99.90
37844;DHT22;63793;57.632;18.292;2023-11-19T13:51:05;3.30;99.90
37844;DHT22;63793;57.632;18.292;2023-11-19T13:53:33;3.30;99.90
37844;DHT22;63793;57.632;18.292;2023-11-19T13:56:18;3.30;99.90
37844;DHT22;63793;57.632;18.292;2023-11-19T13:58:45;3.30;99.90
37844;DHT22;63793;57.632;18.292;2023-11-19T14:01:12;3.30;99.90
37844;DHT22;63793;57.632;18.292;2023-11-19T14:03:40;3.30;99.90
37844;DHT22;63793;57.632;18.292;2023-11-19T14:06:09;3.30;99.90
37844;DHT22;63793;57.632;18.292;2023-11-19T14:08:42;3.20;99.90
37844;DHT22;63793;57.632;18.292;2023-11-19T14:11:09;3.20;99.90
37844;DHT22;63793;57.632;18.292;2023-11-19T14:13:36;3.10;99.90
37844;DHT22;63793;57.632;18.292;2023-11-19T14:16:03;3.10;99.90
37844;DHT22;63793;57.632;18.292;2023-11-19T14:18:33;3.00;99.90
37844;DHT22;63793;57.632;18.292;2023-11-19T14:21:02;3.00;99.90
37844;DHT22;63793;57.632;18.292;2023-11-19T14:23:30;2.90;99.90
37844;DHT22;63793;57.632;18.292;2023-11-19T14:25:57;2.90;99.90
37844;DHT22;63793;57.632;18.292;2023-11-19T14:28:24;2.90;99.90
37844;DHT22;63793;57.632;18.292;2023-11-19T14:30:52;2.80;99.90
37844;DHT22;63793;57.632;18.292;2023-11-19T14:33:23;2.80;99.90
37844;DHT22;63793;57.632;18.292;2023-11-19T14:35:51;2.80;99.90
37844;DHT22;63793;57.632;18.292;2023-11-19T14:38:18;2.80;99.90
37844;DHT22;63793;57.632;18.292;2023-11-19T14:40:45;2.70;99.90
37844;DHT22;63793;57.632;18.292;2023-11-19T14:43:12;2.70;99.90
37844;DHT22;63793;57.632;18.292;2023-11-19T14:45:40;2.70;99.90
37844;DHT22;63793;57.632;18.292;2023-11-19T14:48:16;2.70;99.90
37844;DHT22;63793;57.632;18.292;2023-11-19T14:50:44;2.70;99.90
37844;DHT22;63793;57.632;18.292;2023-11-19T14:53:11;2.60;99.90
37844;DHT22;63793;57.632;18.292;2023-11-19T14:55:38;2.60;99.90
37844;DHT22;63793;57.632;18.292;2023-11-19T14:58:05;2.60;99.90
37844;DHT22;63793;57.632;18.292;2023-11-19T15:00:39;2.60;99.90
37844;DHT22;63793;57.632;18.292;2023-11-19T15:03:06;2.60;99.90
37844;DHT22;63793;57.632;18.292;2023-11-19T15:05:33;2.50;99.90
37844;DHT22;63793;57.632;18.292;2023-11-19T15:08:01;2.50;99.90
37844;DHT22;63793;57.632;18.292;2023-11-19T15:10:29;2.50;99.90
37844;DHT22;63793;57.632;18.292;2023-11-19T15:12:56;2.50;99.90
37844;DHT22;63793;57.632;18.292;2023-11-19T15:15:24;2.60;99.90
37844;DHT22;63793;57.632;18.292;2023-11-19T15:17:54;2.60;99.90
37844;DHT22;63793;57.632;18.292;2023-11-19T15:20:21;2.60;99.90
37844;DHT22;63793;57.632;18.292;2023-11-19T15:22:48;2.60;99.90
37844;DHT22;63793;57.632;18.292;2023-11-19T15:25:15;2.70;99.90
37844;DHT22;63793;57.632;18.292;2023-11-19T15:27:42;2.60;99.90
37844;DHT22;63793;57.632;18.292;2023-11-19T15:30:09;2.50;99.90
37844;DHT22;63793;57.632;18.292;2023-11-19T15:32:37;2.50;99.90
37844;DHT22;63793;57.632;18.292;2023-11-19T15:35:06;2.50;99.90
37844;DHT22;63793;57.632;18.292;2023-11-19T15:37:34;2.50;99.90
37844;DHT22;63793;57.632;18.292;2023-11-19T15:40:02;2.40;99.90
37844;DHT22;63793;57.632;18.292;2023-11-19T15:42:32;2.40;99.90